Share

ฮานอย, ประเทศเวียดนาม

Noibai International (VVNB) Elev 36 ft | 21.22 °N, 105.81 °E | Change Station

Current weather conditions updated 31 minutes ago

Mostly Cloudy
มีเมฆคลุมเป็นส่วนใหญ่
82 ฟาเรนไฮน์
Feels Like 91 ฟาเรนไฮน์
N
8
ลม ความผันแปร ลม from ทางทิศตะวันออกและทิศตะวันออกเฉียงใต้
เวลาพระอาทิตย์ขึ้น 5:33 AM
เวลาพระอาทิตย์ตก 6:17 PM
Moon ข้างแรม

Today is forecast to be Warmer than yesterday. มีฝนฟ้าคะนองในตอนดึก tonight.

ความดัน 29.74 นิ้ว
ทัศนวิสัย 6.2 ไมล์
เมฆ มีเมฆคลุมเป็นบางส่วน 2000 ft
มีเมฆคลุมเป็นส่วนใหญ่ 4000 ft
ดัชนีความร้อน 91 ฟาเรนไฮน์
อุณหภูมิที่อากาศอาจจับตัวเป็นหยาดน้ำค้าง 77 ฟาเรนไฮน์
ความชื้น 84%
Rainfall 0.00 นิ้ว
Snow Depth Not available.
UV 7 out of 16
Pollen Not available.
Air Quality Not available.
Flu Activity Not available.
METAR VVNB 210700Z 12007KT 9999 SCT020 BKN040 28/25 Q1007 NOSIG

More Conditions Fewer Conditions

ความดัน 29.74 นิ้ว
ทัศนวิสัย 6.2 ไมล์
เมฆ มีเมฆคลุมเป็นบางส่วน 2000 ft
มีเมฆคลุมเป็นส่วนใหญ่ 4000 ft
ดัชนีความร้อน 91 ฟาเรนไฮน์
อุณหภูมิที่อากาศอาจจับตัวเป็นหยาดน้ำค้าง 77 ฟาเรนไฮน์
ความชื้น 84%
Rainfall 0.00 นิ้ว
Snow Depth Not available.
UV 7 out of 16
Pollen Not available.
Air Quality Not available.
Flu Activity Not available.
METAR VVNB 210700Z 12007KT 9999 SCT020 BKN040 28/25 Q1007 NOSIG

More Conditions Fewer Conditions

10-Day Weather Forecast

Almanac

ดาราศาสตร์

Apr. 21, 2014 Rise Set
Actual Time 5:33 AM ICT 6:17 PM ICT
Civil Twilight 5:10 AM ICT 6:40 PM ICT
Nautical Twilight 4:43 AM ICT 7:07 PM ICT
Astronomical Twilight 4:16 AM ICT 7:34 PM ICT
Moon ไม่มีพระจันทร์ขึ้นเหนือท้องฝ้า 10:36 AM ICT
Length Of Visible Light 13h 29m
ความยาวของวัน
12h 44m
Tomorrow will be 1m 6s longer.
ข้างแรม, 62% of the Moon is Illuminated
วันนี้
ข้างแรม
Apr 22
ไตรมาสล่าสุด
Apr 29
New
May 6
ไตรมาสแรก
May 14
พระจันทร์เต็มดวง

Yesterday's Extremes

Country Highs Country Lows

Community

  • Snowy Robin
    Snowy Robin
  • Sun Pillar and Geese
    Sun Pillar and Geese
  • Showers on the Way
    Showers on the Way
  • Easter Morning Fog
    Easter Morning Fog
  • Easter Dance
    Easter Dance

WunderPhotos

Upload Photos

1,703,572 photos uploaded!

WunderBlogs® & News

Nearby

Snow Depth

Not available.

Coastal Water Temperatures

สถานที่ อุณหภูมิ
No Stations Reporting

Earthquake Activity

City Distance Mag. Time & Date
No recent earthquake activity has been reported nearby.
Minimum magnitude displayed is 2.5.

Nearby Weather Stations

There are no personal weather stations in this area.

What do you think?

We're not finished. Please let us know what you like, what you don't like, and what you are still missing.